sensor_id;sensor_type;location;lat;lon;timestamp;temperature;humidity
11836;DHT22;5977;51.972;7.640;2022-10-26T00:01:04;17.60;99.30
11836;DHT22;5977;51.972;7.640;2022-10-26T00:03:33;17.70;98.60
11836;DHT22;5977;51.972;7.640;2022-10-26T00:06:04;17.60;98.90
11836;DHT22;5977;51.972;7.640;2022-10-26T00:08:32;17.70;98.50
11836;DHT22;5977;51.972;7.640;2022-10-26T00:11:00;17.70;98.70
11836;DHT22;5977;51.972;7.640;2022-10-26T00:13:29;17.70;98.20
11836;DHT22;5977;51.972;7.640;2022-10-26T00:15:57;17.70;98.30
11836;DHT22;5977;51.972;7.640;2022-10-26T00:18:26;17.70;98.20
11836;DHT22;5977;51.972;7.640;2022-10-26T00:20:54;17.60;98.30
11836;DHT22;5977;51.972;7.640;2022-10-26T00:23:23;17.60;98.50
11836;DHT22;5977;51.972;7.640;2022-10-26T00:25:54;17.60;98.10
11836;DHT22;5977;51.972;7.640;2022-10-26T00:28:23;17.70;98.30
11836;DHT22;5977;51.972;7.640;2022-10-26T00:30:51;17.80;98.00
11836;DHT22;5977;51.972;7.640;2022-10-26T00:33:19;17.70;98.00
11836;DHT22;5977;51.972;7.640;2022-10-26T00:35:47;17.60;98.30
11836;DHT22;5977;51.972;7.640;2022-10-26T00:38:15;17.60;97.80
11836;DHT22;5977;51.972;7.640;2022-10-26T00:40:44;17.70;97.60
11836;DHT22;5977;51.972;7.640;2022-10-26T00:43:14;17.70;98.20
11836;DHT22;5977;51.972;7.640;2022-10-26T00:45:43;17.70;97.70
11836;DHT22;5977;51.972;7.640;2022-10-26T00:48:18;17.70;98.10
11836;DHT22;5977;51.972;7.640;2022-10-26T00:50:47;17.60;96.90
11836;DHT22;5977;51.972;7.640;2022-10-26T00:53:15;17.60;98.10
11836;DHT22;5977;51.972;7.640;2022-10-26T00:55:47;17.50;97.20
11836;DHT22;5977;51.972;7.640;2022-10-26T00:58:16;17.50;98.20
11836;DHT22;5977;51.972;7.640;2022-10-26T01:00:45;17.60;98.30
11836;DHT22;5977;51.972;7.640;2022-10-26T01:03:13;17.60;98.50
11836;DHT22;5977;51.972;7.640;2022-10-26T01:05:44;17.60;98.00
11836;DHT22;5977;51.972;7.640;2022-10-26T01:08:13;17.60;98.00
11836;DHT22;5977;51.972;7.640;2022-10-26T01:10:42;17.60;97.80
11836;DHT22;5977;51.972;7.640;2022-10-26T01:13:12;17.60;97.80
11836;DHT22;5977;51.972;7.640;2022-10-26T01:15:47;17.70;98.00
11836;DHT22;5977;51.972;7.640;2022-10-26T01:18:22;17.70;97.00
11836;DHT22;5977;51.972;7.640;2022-10-26T01:21:21;17.80;97.10
11836;DHT22;5977;51.972;7.640;2022-10-26T01:24:12;17.70;96.90
11836;DHT22;5977;51.972;7.640;2022-10-26T01:27:04;17.70;97.20
11836;DHT22;5977;51.972;7.640;2022-10-26T01:29:58;17.70;96.90
11836;DHT22;5977;51.972;7.640;2022-10-26T01:32:32;17.80;97.40
11836;DHT22;5977;51.972;7.640;2022-10-26T01:35:06;17.80;96.60
11836;DHT22;5977;51.972;7.640;2022-10-26T01:37:37;17.70;96.40
11836;DHT22;5977;51.972;7.640;2022-10-26T01:40:12;17.70;96.80
11836;DHT22;5977;51.972;7.640;2022-10-26T01:42:47;17.70;96.80
11836;DHT22;5977;51.972;7.640;2022-10-26T01:45:17;17.70;96.80
11836;DHT22;5977;51.972;7.640;2022-10-26T01:47:47;17.50;97.00
11836;DHT22;5977;51.972;7.640;2022-10-26T01:50:17;17.50;97.40
11836;DHT22;5977;51.972;7.640;2022-10-26T01:52:48;17.50;97.20
11836;DHT22;5977;51.972;7.640;2022-10-26T01:55:44;17.50;97.80
11836;DHT22;5977;51.972;7.640;2022-10-26T01:58:32;17.60;97.90
11836;DHT22;5977;51.972;7.640;2022-10-26T02:01:12;17.60;97.60
11836;DHT22;5977;51.972;7.640;2022-10-26T02:03:46;17.60;97.40
11836;DHT22;5977;51.972;7.640;2022-10-26T02:06:19;17.70;97.40
11836;DHT22;5977;51.972;7.640;2022-10-26T02:08:59;17.70;96.90
11836;DHT22;5977;51.972;7.640;2022-10-26T02:11:37;17.70;97.00
11836;DHT22;5977;51.972;7.640;2022-10-26T02:14:11;17.70;96.90
11836;DHT22;5977;51.972;7.640;2022-10-26T02:16:52;17.50;96.90
11836;DHT22;5977;51.972;7.640;2022-10-26T02:19:31;17.50;97.20
11836;DHT22;5977;51.972;7.640;2022-10-26T02:22:04;17.60;97.70
11836;DHT22;5977;51.972;7.640;2022-10-26T02:24:33;17.70;97.30
11836;DHT22;5977;51.972;7.640;2022-10-26T02:27:05;17.50;97.20
11836;DHT22;5977;51.972;7.640;2022-10-26T02:29:35;17.50;96.80
11836;DHT22;5977;51.972;7.640;2022-10-26T02:32:05;17.50;96.50
11836;DHT22;5977;51.972;7.640;2022-10-26T02:34:37;17.50;97.20
11836;DHT22;5977;51.972;7.640;2022-10-26T02:37:06;17.60;97.50
11836;DHT22;5977;51.972;7.640;2022-10-26T02:39:35;17.60;97.10
11836;DHT22;5977;51.972;7.640;2022-10-26T02:42:06;17.60;97.40
11836;DHT22;5977;51.972;7.640;2022-10-26T02:44:39;17.50;97.10
11836;DHT22;5977;51.972;7.640;2022-10-26T02:47:08;17.50;97.40
11836;DHT22;5977;51.972;7.640;2022-10-26T02:49:38;17.60;97.40
11836;DHT22;5977;51.972;7.640;2022-10-26T02:52:11;17.70;97.40
11836;DHT22;5977;51.972;7.640;2022-10-26T02:54:49;17.70;97.60
11836;DHT22;5977;51.972;7.640;2022-10-26T02:57:22;17.70;97.10
11836;DHT22;5977;51.972;7.640;2022-10-26T02:59:52;17.70;96.60
11836;DHT22;5977;51.972;7.640;2022-10-26T03:02:21;17.60;97.10
11836;DHT22;5977;51.972;7.640;2022-10-26T03:04:51;17.50;97.10
11836;DHT22;5977;51.972;7.640;2022-10-26T03:07:20;17.50;97.30
11836;DHT22;5977;51.972;7.640;2022-10-26T03:09:48;17.60;96.60
11836;DHT22;5977;51.972;7.640;2022-10-26T03:12:16;17.60;96.90
11836;DHT22;5977;51.972;7.640;2022-10-26T03:14:44;17.60;96.90
11836;DHT22;5977;51.972;7.640;2022-10-26T03:17:12;17.50;96.60
11836;DHT22;5977;51.972;7.640;2022-10-26T03:19:40;17.50;97.10
11836;DHT22;5977;51.972;7.640;2022-10-26T03:22:09;17.50;96.80
11836;DHT22;5977;51.972;7.640;2022-10-26T03:24:37;17.50;97.10
11836;DHT22;5977;51.972;7.640;2022-10-26T03:27:05;17.70;96.50
11836;DHT22;5977;51.972;7.640;2022-10-26T03:29:32;17.70;96.90
11836;DHT22;5977;51.972;7.640;2022-10-26T03:32:00;17.60;96.60
11836;DHT22;5977;51.972;7.640;2022-10-26T03:34:28;17.80;97.50
11836;DHT22;5977;51.972;7.640;2022-10-26T03:36:56;17.90;97.10
11836;DHT22;5977;51.972;7.640;2022-10-26T03:39:25;18.10;96.20
11836;DHT22;5977;51.972;7.640;2022-10-26T03:41:53;18.10;95.60
11836;DHT22;5977;51.972;7.640;2022-10-26T03:44:21;18.30;94.90
11836;DHT22;5977;51.972;7.640;2022-10-26T03:46:49;18.30;94.40
11836;DHT22;5977;51.972;7.640;2022-10-26T03:49:17;18.30;93.90
11836;DHT22;5977;51.972;7.640;2022-10-26T03:51:45;18.30;93.70
11836;DHT22;5977;51.972;7.640;2022-10-26T03:54:13;18.30;93.60
11836;DHT22;5977;51.972;7.640;2022-10-26T03:56:42;18.20;93.40
11836;DHT22;5977;51.972;7.640;2022-10-26T03:59:10;18.10;93.50
11836;DHT22;5977;51.972;7.640;2022-10-26T04:01:37;18.20;93.30
11836;DHT22;5977;51.972;7.640;2022-10-26T04:04:06;18.20;93.30
11836;DHT22;5977;51.972;7.640;2022-10-26T04:06:33;18.20;92.90
11836;DHT22;5977;51.972;7.640;2022-10-26T04:09:01;18.20;92.80
11836;DHT22;5977;51.972;7.640;2022-10-26T04:11:29;18.30;92.70
11836;DHT22;5977;51.972;7.640;2022-10-26T04:13:58;18.30;92.40
11836;DHT22;5977;51.972;7.640;2022-10-26T04:16:26;18.20;92.50
11836;DHT22;5977;51.972;7.640;2022-10-26T04:18:59;18.30;92.30
11836;DHT22;5977;51.972;7.640;2022-10-26T04:21:27;18.30;92.30
11836;DHT22;5977;51.972;7.640;2022-10-26T04:23:54;18.40;92.20
11836;DHT22;5977;51.972;7.640;2022-10-26T04:26:22;18.40;92.20
11836;DHT22;5977;51.972;7.640;2022-10-26T04:28:50;18.30;92.30
11836;DHT22;5977;51.972;7.640;2022-10-26T04:31:19;18.30;92.50
11836;DHT22;5977;51.972;7.640;2022-10-26T04:33:47;18.30;92.20
11836;DHT22;5977;51.972;7.640;2022-10-26T04:36:15;18.20;92.60
11836;DHT22;5977;51.972;7.640;2022-10-26T04:38:42;18.40;92.70
11836;DHT22;5977;51.972;7.640;2022-10-26T04:41:10;18.20;92.60
11836;DHT22;5977;51.972;7.640;2022-10-26T04:43:38;18.30;92.90
11836;DHT22;5977;51.972;7.640;2022-10-26T04:46:06;18.40;93.40
11836;DHT22;5977;51.972;7.640;2022-10-26T04:48:37;18.40;93.00
11836;DHT22;5977;51.972;7.640;2022-10-26T04:51:05;18.50;92.70
11836;DHT22;5977;51.972;7.640;2022-10-26T04:53:32;18.40;92.60
11836;DHT22;5977;51.972;7.640;2022-10-26T04:56:01;18.40;93.10
11836;DHT22;5977;51.972;7.640;2022-10-26T04:58:29;18.50;93.00
11836;DHT22;5977;51.972;7.640;2022-10-26T05:00:56;18.50;92.80
11836;DHT22;5977;51.972;7.640;2022-10-26T05:03:24;18.60;92.80
11836;DHT22;5977;51.972;7.640;2022-10-26T05:05:57;18.50;92.80
11836;DHT22;5977;51.972;7.640;2022-10-26T05:08:26;18.50;93.00
11836;DHT22;5977;51.972;7.640;2022-10-26T05:10:55;18.50;93.00
11836;DHT22;5977;51.972;7.640;2022-10-26T05:13:23;18.50;93.10
11836;DHT22;5977;51.972;7.640;2022-10-26T05:15:55;18.50;93.40
11836;DHT22;5977;51.972;7.640;2022-10-26T05:18:23;18.40;93.60
11836;DHT22;5977;51.972;7.640;2022-10-26T05:20:53;18.50;93.60
11836;DHT22;5977;51.972;7.640;2022-10-26T05:23:21;18.40;93.30
11836;DHT22;5977;51.972;7.640;2022-10-26T05:25:49;18.40;93.40
11836;DHT22;5977;51.972;7.640;2022-10-26T05:28:17;18.40;93.80
11836;DHT22;5977;51.972;7.640;2022-10-26T05:30:45;18.30;93.60
11836;DHT22;5977;51.972;7.640;2022-10-26T05:33:14;18.50;93.80
11836;DHT22;5977;51.972;7.640;2022-10-26T05:35:42;18.50;93.70
11836;DHT22;5977;51.972;7.640;2022-10-26T05:38:14;18.50;93.30
11836;DHT22;5977;51.972;7.640;2022-10-26T05:40:48;18.40;93.50
11836;DHT22;5977;51.972;7.640;2022-10-26T05:43:17;18.40;93.40
11836;DHT22;5977;51.972;7.640;2022-10-26T05:45:45;18.30;93.70
11836;DHT22;5977;51.972;7.640;2022-10-26T05:48:13;18.40;94.00
11836;DHT22;5977;51.972;7.640;2022-10-26T05:50:40;18.40;93.70
11836;DHT22;5977;51.972;7.640;2022-10-26T05:53:08;18.50;93.50
11836;DHT22;5977;51.972;7.640;2022-10-26T05:55:38;18.40;93.70
11836;DHT22;5977;51.972;7.640;2022-10-26T05:58:09;18.40;93.70
11836;DHT22;5977;51.972;7.640;2022-10-26T06:00:43;18.30;94.00
11836;DHT22;5977;51.972;7.640;2022-10-26T06:03:24;18.30;92.60
11836;DHT22;5977;51.972;7.640;2022-10-26T06:05:55;17.60;93.10
11836;DHT22;5977;51.972;7.640;2022-10-26T06:08:26;17.20;94.40
11836;DHT22;5977;51.972;7.640;2022-10-26T06:10:57;16.90;96.30
11836;DHT22;5977;51.972;7.640;2022-10-26T06:13:26;16.80;96.30
11836;DHT22;5977;51.972;7.640;2022-10-26T06:16:17;16.80;98.10
11836;DHT22;5977;51.972;7.640;2022-10-26T06:18:53;16.80;97.80
11836;DHT22;5977;51.972;7.640;2022-10-26T06:21:38;16.70;97.00
11836;DHT22;5977;51.972;7.640;2022-10-26T06:24:11;16.70;98.70
11836;DHT22;5977;51.972;7.640;2022-10-26T06:26:50;16.80;98.50
11836;DHT22;5977;51.972;7.640;2022-10-26T06:29:27;16.80;96.40
11836;DHT22;5977;51.972;7.640;2022-10-26T06:31:58;16.80;97.60
11836;DHT22;5977;51.972;7.640;2022-10-26T06:34:29;16.70;96.80
11836;DHT22;5977;51.972;7.640;2022-10-26T06:37:00;16.80;97.80
11836;DHT22;5977;51.972;7.640;2022-10-26T06:39:30;16.80;98.20
11836;DHT22;5977;51.972;7.640;2022-10-26T06:42:03;16.80;97.90
11836;DHT22;5977;51.972;7.640;2022-10-26T06:44:33;16.80;98.40
11836;DHT22;5977;51.972;7.640;2022-10-26T06:47:05;16.80;98.10
11836;DHT22;5977;51.972;7.640;2022-10-26T06:49:36;16.70;98.60
11836;DHT22;5977;51.972;7.640;2022-10-26T06:52:12;16.70;98.10
11836;DHT22;5977;51.972;7.640;2022-10-26T06:54:46;16.70;98.90
11836;DHT22;5977;51.972;7.640;2022-10-26T06:57:17;16.70;97.90
11836;DHT22;5977;51.972;7.640;2022-10-26T06:59:49;16.70;97.50
11836;DHT22;5977;51.972;7.640;2022-10-26T07:02:17;16.80;99.20
11836;DHT22;5977;51.972;7.640;2022-10-26T07:04:46;16.80;98.40
11836;DHT22;5977;51.972;7.640;2022-10-26T07:07:16;16.70;98.50
11836;DHT22;5977;51.972;7.640;2022-10-26T07:09:45;16.70;98.60
11836;DHT22;5977;51.972;7.640;2022-10-26T07:12:13;16.80;98.80
11836;DHT22;5977;51.972;7.640;2022-10-26T07:14:42;16.70;98.80
11836;DHT22;5977;51.972;7.640;2022-10-26T07:17:10;16.80;98.80
11836;DHT22;5977;51.972;7.640;2022-10-26T07:19:38;16.80;99.30
11836;DHT22;5977;51.972;7.640;2022-10-26T07:22:06;16.70;98.00
11836;DHT22;5977;51.972;7.640;2022-10-26T07:24:34;16.80;98.70
11836;DHT22;5977;51.972;7.640;2022-10-26T07:27:01;16.80;98.90
11836;DHT22;5977;51.972;7.640;2022-10-26T07:29:29;16.80;98.40
11836;DHT22;5977;51.972;7.640;2022-10-26T07:31:58;16.90;98.60
11836;DHT22;5977;51.972;7.640;2022-10-26T07:34:26;16.80;98.50
11836;DHT22;5977;51.972;7.640;2022-10-26T07:36:54;16.90;98.20
11836;DHT22;5977;51.972;7.640;2022-10-26T07:39:22;16.80;98.90
11836;DHT22;5977;51.972;7.640;2022-10-26T07:41:50;16.90;98.30
11836;DHT22;5977;51.972;7.640;2022-10-26T07:44:18;16.90;98.70
11836;DHT22;5977;51.972;7.640;2022-10-26T07:46:45;16.90;98.70
11836;DHT22;5977;51.972;7.640;2022-10-26T07:49:15;16.90;98.60
11836;DHT22;5977;51.972;7.640;2022-10-26T07:51:45;17.00;98.00
11836;DHT22;5977;51.972;7.640;2022-10-26T07:54:13;17.00;98.20
11836;DHT22;5977;51.972;7.640;2022-10-26T07:56:41;16.80;99.00
11836;DHT22;5977;51.972;7.640;2022-10-26T07:59:10;17.00;98.50
11836;DHT22;5977;51.972;7.640;2022-10-26T08:01:38;17.00;98.10
11836;DHT22;5977;51.972;7.640;2022-10-26T08:04:06;17.00;98.50
11836;DHT22;5977;51.972;7.640;2022-10-26T08:06:35;17.00;98.40
11836;DHT22;5977;51.972;7.640;2022-10-26T08:09:03;17.00;98.20
11836;DHT22;5977;51.972;7.640;2022-10-26T08:11:31;17.00;98.00
11836;DHT22;5977;51.972;7.640;2022-10-26T08:14:02;17.10;98.20
11836;DHT22;5977;51.972;7.640;2022-10-26T08:16:30;17.10;98.50
11836;DHT22;5977;51.972;7.640;2022-10-26T08:19:00;17.00;98.70
11836;DHT22;5977;51.972;7.640;2022-10-26T08:21:28;17.10;98.90
11836;DHT22;5977;51.972;7.640;2022-10-26T08:24:07;17.20;98.70
11836;DHT22;5977;51.972;7.640;2022-10-26T08:26:35;17.20;98.80
11836;DHT22;5977;51.972;7.640;2022-10-26T08:29:03;17.20;98.90
11836;DHT22;5977;51.972;7.640;2022-10-26T08:31:31;17.50;97.90
11836;DHT22;5977;51.972;7.640;2022-10-26T08:33:59;17.50;97.80
11836;DHT22;5977;51.972;7.640;2022-10-26T08:36:27;17.90;95.70
11836;DHT22;5977;51.972;7.640;2022-10-26T08:38:55;18.00;95.60
11836;DHT22;5977;51.972;7.640;2022-10-26T08:41:33;17.90;95.40
11836;DHT22;5977;51.972;7.640;2022-10-26T08:44:06;18.00;95.20
11836;DHT22;5977;51.972;7.640;2022-10-26T08:46:41;18.30;94.80
11836;DHT22;5977;51.972;7.640;2022-10-26T08:49:18;18.80;93.00
11836;DHT22;5977;51.972;7.640;2022-10-26T08:51:48;19.00;91.70
11836;DHT22;5977;51.972;7.640;2022-10-26T08:54:22;19.40;90.70
11836;DHT22;5977;51.972;7.640;2022-10-26T08:56:57;19.60;89.00
11836;DHT22;5977;51.972;7.640;2022-10-26T08:59:33;19.50;88.80
11836;DHT22;5977;51.972;7.640;2022-10-26T09:02:02;19.70;88.70
11836;DHT22;5977;51.972;7.640;2022-10-26T09:04:35;19.90;87.10
11836;DHT22;5977;51.972;7.640;2022-10-26T09:07:10;19.60;86.70
11836;DHT22;5977;51.972;7.640;2022-10-26T09:09:45;19.40;88.90
11836;DHT22;5977;51.972;7.640;2022-10-26T09:12:19;19.20;90.40
11836;DHT22;5977;51.972;7.640;2022-10-26T09:14:59;19.10;90.70
11836;DHT22;5977;51.972;7.640;2022-10-26T09:17:37;19.10;90.70
11836;DHT22;5977;51.972;7.640;2022-10-26T09:20:31;19.10;90.80
11836;DHT22;5977;51.972;7.640;2022-10-26T09:23:09;19.00;90.50
11836;DHT22;5977;51.972;7.640;2022-10-26T09:25:40;18.90;90.70
11836;DHT22;5977;51.972;7.640;2022-10-26T09:28:15;19.00;90.90
11836;DHT22;5977;51.972;7.640;2022-10-26T09:30:44;18.90;91.50
11836;DHT22;5977;51.972;7.640;2022-10-26T09:33:15;19.00;90.60
11836;DHT22;5977;51.972;7.640;2022-10-26T09:35:47;19.20;90.60
11836;DHT22;5977;51.972;7.640;2022-10-26T09:38:28;19.00;90.60
11836;DHT22;5977;51.972;7.640;2022-10-26T09:41:00;18.90;91.30
11836;DHT22;5977;51.972;7.640;2022-10-26T09:43:34;19.00;91.20
11836;DHT22;5977;51.972;7.640;2022-10-26T09:46:05;19.10;90.60
11836;DHT22;5977;51.972;7.640;2022-10-26T09:48:35;19.00;90.40
11836;DHT22;5977;51.972;7.640;2022-10-26T09:51:04;19.00;90.50
11836;DHT22;5977;51.972;7.640;2022-10-26T09:53:32;18.90;90.80
11836;DHT22;5977;51.972;7.640;2022-10-26T09:56:03;19.10;90.50
11836;DHT22;5977;51.972;7.640;2022-10-26T09:58:39;19.20;90.60
11836;DHT22;5977;51.972;7.640;2022-10-26T10:01:20;19.30;90.30
11836;DHT22;5977;51.972;7.640;2022-10-26T10:04:08;19.30;90.00
11836;DHT22;5977;51.972;7.640;2022-10-26T10:06:37;19.40;88.90
11836;DHT22;5977;51.972;7.640;2022-10-26T10:09:06;19.60;88.40
11836;DHT22;5977;51.972;7.640;2022-10-26T10:11:37;19.90;86.90
11836;DHT22;5977;51.972;7.640;2022-10-26T10:14:08;19.80;85.80
11836;DHT22;5977;51.972;7.640;2022-10-26T10:16:41;19.90;86.00
11836;DHT22;5977;51.972;7.640;2022-10-26T10:19:21;19.70;86.90
11836;DHT22;5977;51.972;7.640;2022-10-26T10:21:53;19.50;87.20
11836;DHT22;5977;51.972;7.640;2022-10-26T10:24:23;19.40;88.10
11836;DHT22;5977;51.972;7.640;2022-10-26T10:26:56;19.40;88.00
11836;DHT22;5977;51.972;7.640;2022-10-26T10:29:26;19.30;88.10
11836;DHT22;5977;51.972;7.640;2022-10-26T10:31:55;19.30;88.10
11836;DHT22;5977;51.972;7.640;2022-10-26T10:34:24;19.50;87.70
11836;DHT22;5977;51.972;7.640;2022-10-26T10:36:52;19.50;87.30
11836;DHT22;5977;51.972;7.640;2022-10-26T10:39:37;19.50;87.80
11836;DHT22;5977;51.972;7.640;2022-10-26T10:42:13;19.70;87.10
11836;DHT22;5977;51.972;7.640;2022-10-26T10:44:45;19.60;87.10
11836;DHT22;5977;51.972;7.640;2022-10-26T10:47:20;19.60;87.10
11836;DHT22;5977;51.972;7.640;2022-10-26T10:49:54;19.60;87.20
11836;DHT22;5977;51.972;7.640;2022-10-26T10:52:25;19.60;87.60
11836;DHT22;5977;51.972;7.640;2022-10-26T10:55:06;19.60;88.10
11836;DHT22;5977;51.972;7.640;2022-10-26T10:57:47;19.50;88.40
11836;DHT22;5977;51.972;7.640;2022-10-26T11:00:23;19.50;88.80
11836;DHT22;5977;51.972;7.640;2022-10-26T11:03:13;19.60;89.10
11836;DHT22;5977;51.972;7.640;2022-10-26T11:06:04;19.70;89.10
11836;DHT22;5977;51.972;7.640;2022-10-26T11:08:40;19.70;88.60
11836;DHT22;5977;51.972;7.640;2022-10-26T11:11:10;19.80;88.50
11836;DHT22;5977;51.972;7.640;2022-10-26T11:13:45;19.90;88.40
11836;DHT22;5977;51.972;7.640;2022-10-26T11:16:20;19.90;88.30
11836;DHT22;5977;51.972;7.640;2022-10-26T11:18:54;19.90;88.40
11836;DHT22;5977;51.972;7.640;2022-10-26T11:21:26;19.80;88.70
11836;DHT22;5977;51.972;7.640;2022-10-26T11:24:06;19.90;89.10
11836;DHT22;5977;51.972;7.640;2022-10-26T11:26:42;19.90;89.50
11836;DHT22;5977;51.972;7.640;2022-10-26T11:29:19;19.90;88.90
11836;DHT22;5977;51.972;7.640;2022-10-26T11:31:52;20.00;88.40
11836;DHT22;5977;51.972;7.640;2022-10-26T11:34:26;20.00;88.10
11836;DHT22;5977;51.972;7.640;2022-10-26T11:37:02;20.00;88.60
11836;DHT22;5977;51.972;7.640;2022-10-26T11:39:37;20.00;88.40
11836;DHT22;5977;51.972;7.640;2022-10-26T11:42:18;20.00;88.30
11836;DHT22;5977;51.972;7.640;2022-10-26T11:44:51;20.00;88.30
11836;DHT22;5977;51.972;7.640;2022-10-26T11:47:27;20.00;88.30
11836;DHT22;5977;51.972;7.640;2022-10-26T11:50:03;20.00;88.20
11836;DHT22;5977;51.972;7.640;2022-10-26T11:52:38;20.00;88.50
11836;DHT22;5977;51.972;7.640;2022-10-26T11:55:09;20.00;88.80
11836;DHT22;5977;51.972;7.640;2022-10-26T11:57:38;20.00;88.90
11836;DHT22;5977;51.972;7.640;2022-10-26T12:00:13;20.00;88.90
11836;DHT22;5977;51.972;7.640;2022-10-26T12:02:46;20.00;89.20
11836;DHT22;5977;51.972;7.640;2022-10-26T12:05:23;20.00;89.00
11836;DHT22;5977;51.972;7.640;2022-10-26T12:07:54;20.00;88.70
11836;DHT22;5977;51.972;7.640;2022-10-26T12:10:28;20.00;89.10
11836;DHT22;5977;51.972;7.640;2022-10-26T12:13:02;20.10;88.20
11836;DHT22;5977;51.972;7.640;2022-10-26T12:15:34;20.10;88.20
11836;DHT22;5977;51.972;7.640;2022-10-26T12:18:29;20.10;88.10
11836;DHT22;5977;51.972;7.640;2022-10-26T12:21:20;20.10;88.30
11836;DHT22;5977;51.972;7.640;2022-10-26T12:23:55;20.10;88.70
11836;DHT22;5977;51.972;7.640;2022-10-26T12:26:51;20.10;88.80
11836;DHT22;5977;51.972;7.640;2022-10-26T12:29:28;20.10;88.80
11836;DHT22;5977;51.972;7.640;2022-10-26T12:31:57;20.10;89.80
11836;DHT22;5977;51.972;7.640;2022-10-26T12:34:57;20.10;89.20
11836;DHT22;5977;51.972;7.640;2022-10-26T12:37:32;20.10;88.80
11836;DHT22;5977;51.972;7.640;2022-10-26T12:43:35;20.20;89.00
11836;DHT22;5977;51.972;7.640;2022-10-26T12:52:48;20.20;89.00
11836;DHT22;5977;51.972;7.640;2022-10-26T12:58:37;20.10;89.10
11836;DHT22;5977;51.972;7.640;2022-10-26T13:01:21;20.10;89.40
11836;DHT22;5977;51.972;7.640;2022-10-26T13:04:01;20.10;89.20
11836;DHT22;5977;51.972;7.640;2022-10-26T13:06:47;20.10;89.80
11836;DHT22;5977;51.972;7.640;2022-10-26T13:09:24;20.10;90.00
11836;DHT22;5977;51.972;7.640;2022-10-26T13:11:55;20.10;89.90
11836;DHT22;5977;51.972;7.640;2022-10-26T13:14:26;20.20;89.80
11836;DHT22;5977;51.972;7.640;2022-10-26T13:16:55;20.10;90.10
11836;DHT22;5977;51.972;7.640;2022-10-26T13:19:25;20.10;90.10
11836;DHT22;5977;51.972;7.640;2022-10-26T13:21:57;20.10;90.40
11836;DHT22;5977;51.972;7.640;2022-10-26T13:24:28;20.10;90.40
11836;DHT22;5977;51.972;7.640;2022-10-26T13:27:23;20.10;90.40
11836;DHT22;5977;51.972;7.640;2022-10-26T13:33:09;20.10;90.60
11836;DHT22;5977;51.972;7.640;2022-10-26T13:35:39;20.00;90.60
11836;DHT22;5977;51.972;7.640;2022-10-26T13:38:09;20.10;90.50
11836;DHT22;5977;51.972;7.640;2022-10-26T13:40:40;20.10;90.80
11836;DHT22;5977;51.972;7.640;2022-10-26T13:43:15;20.00;90.70
11836;DHT22;5977;51.972;7.640;2022-10-26T13:45:52;20.00;90.90
11836;DHT22;5977;51.972;7.640;2022-10-26T13:48:28;20.00;91.10
11836;DHT22;5977;51.972;7.640;2022-10-26T13:51:01;20.00;90.90
11836;DHT22;5977;51.972;7.640;2022-10-26T13:53:37;20.00;90.90
11836;DHT22;5977;51.972;7.640;2022-10-26T13:56:16;20.00;91.20
11836;DHT22;5977;51.972;7.640;2022-10-26T13:58:49;20.00;91.30
11836;DHT22;5977;51.972;7.640;2022-10-26T14:01:19;19.90;91.70
11836;DHT22;5977;51.972;7.640;2022-10-26T14:03:49;19.90;91.70
11836;DHT22;5977;51.972;7.640;2022-10-26T14:06:23;20.00;91.30
11836;DHT22;5977;51.972;7.640;2022-10-26T14:08:55;20.00;91.70
11836;DHT22;5977;51.972;7.640;2022-10-26T14:11:31;19.90;91.90
11836;DHT22;5977;51.972;7.640;2022-10-26T14:14:00;20.00;91.80
11836;DHT22;5977;51.972;7.640;2022-10-26T14:16:31;19.90;92.40
11836;DHT22;5977;51.972;7.640;2022-10-26T14:19:00;19.90;92.30
11836;DHT22;5977;51.972;7.640;2022-10-26T14:21:28;19.90;92.50
11836;DHT22;5977;51.972;7.640;2022-10-26T14:23:57;19.90;92.60
11836;DHT22;5977;51.972;7.640;2022-10-26T14:26:28;19.80;92.90
11836;DHT22;5977;51.972;7.640;2022-10-26T14:28:58;19.90;93.10
11836;DHT22;5977;51.972;7.640;2022-10-26T14:31:27;19.80;93.20
11836;DHT22;5977;51.972;7.640;2022-10-26T14:33:56;19.90;93.50
11836;DHT22;5977;51.972;7.640;2022-10-26T14:36:27;19.80;93.60
11836;DHT22;5977;51.972;7.640;2022-10-26T14:39:02;19.90;93.20
11836;DHT22;5977;51.972;7.640;2022-10-26T14:41:34;19.90;93.20
11836;DHT22;5977;51.972;7.640;2022-10-26T14:44:02;19.90;93.80
11836;DHT22;5977;51.972;7.640;2022-10-26T14:46:33;19.90;93.80
11836;DHT22;5977;51.972;7.640;2022-10-26T14:49:02;19.80;93.60
11836;DHT22;5977;51.972;7.640;2022-10-26T14:51:34;19.80;94.00
11836;DHT22;5977;51.972;7.640;2022-10-26T14:54:02;19.80;93.60
11836;DHT22;5977;51.972;7.640;2022-10-26T14:56:39;19.80;94.70
11836;DHT22;5977;51.972;7.640;2022-10-26T14:59:16;19.80;94.30
11836;DHT22;5977;51.972;7.640;2022-10-26T15:01:53;19.70;94.60
11836;DHT22;5977;51.972;7.640;2022-10-26T15:04:31;19.70;94.50
11836;DHT22;5977;51.972;7.640;2022-10-26T15:07:16;19.70;95.00
11836;DHT22;5977;51.972;7.640;2022-10-26T15:09:46;19.80;95.20
11836;DHT22;5977;51.972;7.640;2022-10-26T15:12:22;19.60;95.30
11836;DHT22;5977;51.972;7.640;2022-10-26T15:14:52;19.70;95.40
11836;DHT22;5977;51.972;7.640;2022-10-26T15:17:23;19.70;95.50
11836;DHT22;5977;51.972;7.640;2022-10-26T15:19:54;19.60;95.50
11836;DHT22;5977;51.972;7.640;2022-10-26T15:22:25;19.60;95.70
11836;DHT22;5977;51.972;7.640;2022-10-26T15:25:00;19.70;95.70
11836;DHT22;5977;51.972;7.640;2022-10-26T15:27:30;19.60;96.60
11836;DHT22;5977;51.972;7.640;2022-10-26T15:30:20;19.70;96.40
11836;DHT22;5977;51.972;7.640;2022-10-26T15:32:49;19.60;96.30
11836;DHT22;5977;51.972;7.640;2022-10-26T15:35:29;19.60;96.20
11836;DHT22;5977;51.972;7.640;2022-10-26T15:37:57;19.60;96.50
11836;DHT22;5977;51.972;7.640;2022-10-26T15:40:27;19.50;96.90
11836;DHT22;5977;51.972;7.640;2022-10-26T15:42:59;19.50;96.90
11836;DHT22;5977;51.972;7.640;2022-10-26T15:45:29;19.50;96.70
11836;DHT22;5977;51.972;7.640;2022-10-26T15:48:03;19.50;97.30
11836;DHT22;5977;51.972;7.640;2022-10-26T15:50:42;19.40;97.40
11836;DHT22;5977;51.972;7.640;2022-10-26T15:53:15;19.40;97.80
11836;DHT22;5977;51.972;7.640;2022-10-26T15:55:43;19.40;97.90
11836;DHT22;5977;51.972;7.640;2022-10-26T15:58:13;19.40;97.70
11836;DHT22;5977;51.972;7.640;2022-10-26T16:00:42;19.30;99.10
11836;DHT22;5977;51.972;7.640;2022-10-26T16:03:13;19.30;99.00
11836;DHT22;5977;51.972;7.640;2022-10-26T16:05:41;19.20;99.50
11836;DHT22;5977;51.972;7.640;2022-10-26T16:08:11;19.20;99.90
11836;DHT22;5977;51.972;7.640;2022-10-26T16:10:44;19.10;99.90
11836;DHT22;5977;51.972;7.640;2022-10-26T16:13:14;19.00;99.90
11836;DHT22;5977;51.972;7.640;2022-10-26T16:15:42;18.90;99.90
11836;DHT22;5977;51.972;7.640;2022-10-26T16:18:10;18.90;99.90
11836;DHT22;5977;51.972;7.640;2022-10-26T16:20:38;18.80;99.90
11836;DHT22;5977;51.972;7.640;2022-10-26T16:23:06;18.80;99.90
11836;DHT22;5977;51.972;7.640;2022-10-26T16:25:40;18.80;99.90
11836;DHT22;5977;51.972;7.640;2022-10-26T16:28:10;18.80;99.90
11836;DHT22;5977;51.972;7.640;2022-10-26T16:30:40;18.80;99.90
11836;DHT22;5977;51.972;7.640;2022-10-26T16:33:08;18.80;99.90